Time;durP1;ratioP1;P1;durP2;ratioP2;P2;SDS_P1;SDS_P2;PMS_P1;PMS_P2;Temp;Humidity;BMP_temperature;BMP_pressure;BME280_temperature;BME280_humidity;BME280_pressure;Samples;Min_cycle;Max_cycle;Signal;HPM_P1;HPM_P2
2021/05/02 00:02:05;;;;;;;31.80;25.40;;;;;;;8.09;98.84;95845.63;5055499;28;21075;-61
2021/05/02 00:04:31;;;;;;;30.87;26.47;;;;;;;8.14;98.81;95864.06;5054851;28;20414;-60
2021/05/02 00:06:57;;;;;;;34.17;27.27;;;;;;;7.58;100.00;95863.56;5055051;28;20465;-62
2021/05/02 00:09:22;;;;;;;32.93;25.80;;;;;;;7.93;100.00;95861.13;5054921;28;20217;-59
2021/05/02 00:11:48;;;;;;;33.00;25.90;;;;;;;7.95;99.71;95859.09;5055343;28;20165;-61
2021/05/02 00:14:13;;;;;;;36.77;29.30;;;;;;;8.00;99.39;95859.22;5055789;28;20258;-60
2021/05/02 00:16:39;;;;;;;33.97;27.70;;;;;;;8.13;99.95;95867.69;5063121;28;20181;-59
2021/05/02 00:19:11;;;;;;;37.10;30.37;;;;;;;8.00;98.19;95867.06;5058760;28;20657;-60
2021/05/02 00:21:36;;;;;;;32.97;27.30;;;;;;;8.00;98.96;95865.25;5075136;28;20187;-59
2021/05/02 00:24:03;;;;;;;28.80;25.27;;;;;;;8.00;98.91;95867.88;5071683;28;20428;-59
2021/05/02 00:26:29;;;;;;;33.23;27.67;;;;;;;7.97;99.92;95873.53;5055079;28;20212;-62
2021/05/02 00:28:56;;;;;;;32.20;26.63;;;;;;;7.67;100.00;95874.53;5055542;28;20469;-60
2021/05/02 00:31:21;;;;;;;35.60;29.47;;;;;;;7.94;100.00;95876.59;5054871;28;20779;-60
2021/05/02 00:33:47;;;;;;;38.53;28.50;;;;;;;8.20;98.82;95873.63;5068067;28;20891;-59
2021/05/02 00:36:13;;;;;;;33.30;27.27;;;;;;;8.21;97.60;95879.66;5074503;28;20632;-59
2021/05/02 00:38:40;;;;;;;34.03;27.80;;;;;;;8.26;97.81;95883.22;5074297;28;20195;-59
2021/05/02 00:41:11;;;;;;;32.00;26.83;;;;;;;8.44;96.27;95881.59;5072874;28;20413;-59
2021/05/02 00:43:38;;;;;;;31.13;26.47;;;;;;;8.31;95.85;95879.97;5073259;28;20468;-59
2021/05/02 00:46:32;;;;;;;31.20;25.00;;;;;;;7.84;97.94;95886.78;5073854;28;20437;-59
2021/05/02 00:49:35;;;;;;;36.70;28.80;;;;;;;7.90;99.17;95887.72;5074291;28;21000;-61
2021/05/02 00:52:16;;;;;;;31.73;26.63;;;;;;;7.51;100.00;95891.59;5073763;28;20420;-60
2021/05/02 00:54:47;;;;;;;32.53;27.87;;;;;;;7.30;100.00;95895.44;5070759;28;20930;-61
2021/05/02 00:57:41;;;;;;;36.20;29.23;;;;;;;7.61;100.00;95893.72;5067702;28;20418;-61
2021/05/02 01:00:09;;;;;;;31.67;26.57;;;;;;;7.50;99.65;95897.06;5072935;28;20448;-60
2021/05/02 01:02:36;;;;;;;32.67;25.90;;;;;;;7.30;100.00;95899.88;5074167;28;20453;-61
2021/05/02 01:05:05;;;;;;;33.60;26.77;;;;;;;7.48;100.00;95897.28;5073903;28;20414;-60
2021/05/02 01:07:40;;;;;;;31.10;26.90;;;;;;;7.50;100.00;95902.28;5073791;28;21042;-61
2021/05/02 01:10:18;;;;;;;30.97;26.33;;;;;;;7.40;100.00;95904.59;5071597;28;20517;-62
2021/05/02 01:12:52;;;;;;;35.43;28.00;;;;;;;7.20;100.00;95908.19;5073424;28;20745;-61
2021/05/02 01:15:25;;;;;;;38.00;28.93;;;;;;;7.20;100.00;95915.22;5073264;28;20448;-61
2021/05/02 01:18:09;;;;;;;35.30;28.17;;;;;;;7.01;100.00;95914.38;5073694;28;20880;-61
2021/05/02 01:20:36;;;;;;;32.00;25.87;;;;;;;6.89;100.00;95921.34;5073983;28;20556;-60
2021/05/02 01:23:05;;;;;;;33.80;27.17;;;;;;;6.88;100.00;95924.16;5073879;28;20461;-60
2021/05/02 01:25:31;;;;;;;34.70;28.73;;;;;;;7.03;100.00;95917.59;5058812;28;20424;-60
2021/05/02 01:27:58;;;;;;;32.57;27.00;;;;;;;7.14;100.00;95922.13;5056314;28;20507;-61
2021/05/02 01:30:27;;;;;;;32.40;28.40;;;;;;;7.22;100.00;95923.66;5068271;28;20450;-59
2021/05/02 01:32:54;;;;;;;31.50;25.57;;;;;;;6.92;100.00;95926.13;5053869;28;20900;-61
2021/05/02 01:35:19;;;;;;;36.50;27.93;;;;;;;7.12;100.00;95924.13;5053834;28;20400;-61
2021/05/02 01:37:48;;;;;;;31.53;26.43;;;;;;;7.35;100.00;95930.56;5054353;28;20959;-60
2021/05/02 01:40:14;;;;;;;32.50;28.00;;;;;;;7.15;100.00;95930.75;5053548;28;20191;-61
2021/05/02 01:42:39;;;;;;;32.93;26.00;;;;;;;7.34;100.00;95931.59;5053521;28;20941;-60
2021/05/02 01:45:07;;;;;;;27.90;24.90;;;;;;;7.63;100.00;95934.28;5053903;28;20525;-61
2021/05/02 01:47:37;;;;;;;30.07;26.10;;;;;;;7.40;100.00;95939.34;5053233;28;20179;-60
2021/05/02 01:50:12;;;;;;;29.60;24.53;;;;;;;7.23;100.00;95938.31;5053356;28;20450;-61
2021/05/02 01:52:47;;;;;;;27.87;24.60;;;;;;;6.88;100.00;95940.63;5059620;28;20785;-61
2021/05/02 01:55:14;;;;;;;30.30;25.23;;;;;;;7.18;100.00;95943.38;5057309;28;20417;-60
2021/05/02 01:57:40;;;;;;;32.30;26.77;;;;;;;7.44;100.00;95955.41;5052964;28;20815;-60
2021/05/02 02:00:29;;;;;;;31.00;25.10;;;;;;;7.72;99.87;95953.91;5052138;28;20439;-63
2021/05/02 02:03:01;;;;;;;29.13;25.90;;;;;;;7.67;100.00;95958.19;5072234;28;20219;-60
2021/05/02 02:05:29;;;;;;;29.83;24.50;;;;;;;7.78;99.43;95963.50;5071849;28;20410;-59
2021/05/02 02:07:56;;;;;;;28.10;25.30;;;;;;;8.19;98.23;95968.03;5072997;28;20409;-61
2021/05/02 02:10:21;;;;;;;27.67;24.67;;;;;;;8.17;97.98;95970.09;5073465;28;20912;-61
2021/05/02 02:12:51;;;;;;;32.50;26.60;;;;;;;8.29;97.92;95968.34;5073384;28;20436;-62
2021/05/02 02:15:17;;;;;;;30.70;24.70;;;;;;;8.31;97.93;95974.94;5072326;28;20182;-62
2021/05/02 02:17:42;;;;;;;27.40;24.33;;;;;;;8.34;96.96;95963.25;5072836;28;20476;-61
2021/05/02 02:20:08;;;;;;;29.23;25.87;;;;;;;8.03;96.61;95977.28;5060238;28;20199;-60
2021/05/02 02:22:37;;;;;;;29.40;24.20;;;;;;;8.11;96.35;95979.63;5053118;28;20200;-60
2021/05/02 02:25:03;;;;;;;27.63;24.20;;;;;;;7.95;97.00;95980.19;5053152;28;20508;-59
2021/05/02 02:27:31;;;;;;;31.83;27.27;;;;;;;7.92;96.80;95982.44;5055141;28;20423;-60
2021/05/02 02:29:59;;;;;;;27.90;25.00;;;;;;;8.08;95.55;95987.13;5057432;28;20465;-62
2021/05/02 02:32:24;;;;;;;28.70;25.77;;;;;;;8.21;95.29;95984.31;5056830;28;20425;-61
2021/05/02 02:34:53;;;;;;;27.53;24.37;;;;;;;8.44;94.99;95988.91;5057145;28;20409;-60
2021/05/02 02:37:22;;;;;;;29.93;26.00;;;;;;;8.46;95.51;95981.63;5056879;28;20320;-59
2021/05/02 02:39:52;;;;;;;29.17;26.20;;;;;;;8.20;94.36;95987.97;5056945;28;20459;-61
2021/05/02 02:42:21;;;;;;;30.60;26.90;;;;;;;8.35;93.96;95996.28;5057043;28;20508;-61
2021/05/02 02:44:49;;;;;;;31.33;27.30;;;;;;;8.07;94.43;96009.03;5056966;28;20433;-61
2021/05/02 02:47:18;;;;;;;29.30;26.07;;;;;;;7.89;96.24;96009.03;5067605;28;20427;-60
2021/05/02 02:49:50;;;;;;;28.57;25.57;;;;;;;7.74;96.67;96013.81;5056837;28;20468;-60
2021/05/02 02:52:23;;;;;;;30.87;27.47;;;;;;;7.75;96.40;96010.19;5056898;28;20403;-60
2021/05/02 02:55:02;;;;;;;32.47;27.87;;;;;;;7.61;97.72;96014.75;5057125;28;20443;-60
2021/05/02 02:57:30;;;;;;;31.60;27.80;;;;;;;7.74;97.96;96019.03;5056429;28;20427;-59
2021/05/02 03:00:01;;;;;;;29.60;25.50;;;;;;;7.59;97.08;96016.78;5056645;28;20443;-60
2021/05/02 03:02:30;;;;;;;31.33;27.93;;;;;;;7.47;98.28;96021.13;5057799;28;20545;-61
2021/05/02 03:04:58;;;;;;;34.80;27.23;;;;;;;7.46;97.47;96022.13;5056601;28;20917;-61
2021/05/02 03:07:24;;;;;;;30.77;27.57;;;;;;;7.73;97.30;96023.50;5074002;28;20430;-61
2021/05/02 03:09:50;;;;;;;33.77;28.00;;;;;;;7.24;99.05;96037.38;5076306;28;20431;-61
2021/05/02 03:12:22;;;;;;;32.23;28.70;;;;;;;7.07;100.00;96031.06;5076525;28;20209;-61
2021/05/02 03:14:53;;;;;;;33.50;29.03;;;;;;;7.37;98.09;96038.28;5074688;28;20427;-60
2021/05/02 03:17:29;;;;;;;31.63;28.20;;;;;;;7.16;100.00;96034.22;5074775;28;20427;-59
2021/05/02 03:20:03;;;;;;;32.53;28.90;;;;;;;7.44;98.39;96028.59;5076245;28;20436;-60
2021/05/02 03:22:32;;;;;;;31.30;27.70;;;;;;;7.42;98.26;96038.44;5056308;28;20552;-61
2021/05/02 03:25:01;;;;;;;33.50;28.00;;;;;;;7.70;96.71;96042.22;5056228;28;20852;-59
2021/05/02 03:27:35;;;;;;;37.47;29.73;;;;;;;7.46;97.37;96040.44;5055783;28;20412;-61
2021/05/02 03:30:06;;;;;;;31.83;27.40;;;;;;;6.99;100.00;96051.44;5056063;28;20497;-61
2021/05/02 03:32:34;;;;;;;33.10;29.17;;;;;;;7.53;98.36;96059.47;5056153;28;20400;-60
2021/05/02 03:35:02;;;;;;;36.70;30.40;;;;;;;7.36;97.27;96060.19;5056062;28;20423;-60
2021/05/02 03:37:32;;;;;;;34.07;30.37;;;;;;;7.82;95.10;96053.56;5055515;28;20466;-60
2021/05/02 03:39:58;;;;;;;32.40;27.70;;;;;;;7.61;94.71;96064.41;5054985;28;20557;-60
2021/05/02 03:42:23;;;;;;;31.27;27.63;;;;;;;7.48;96.76;96061.94;5055851;28;20475;-61
2021/05/02 03:44:49;;;;;;;30.70;26.97;;;;;;;7.68;94.95;96065.16;5055757;28;20899;-61
2021/05/02 03:47:14;;;;;;;31.47;28.00;;;;;;;7.72;94.32;96058.47;5055345;28;20632;-61
2021/05/02 03:49:40;;;;;;;33.07;28.30;;;;;;;7.75;93.19;96065.91;5055761;28;20249;-61
2021/05/02 03:52:06;;;;;;;30.27;26.97;;;;;;;8.04;93.87;96061.81;5069075;28;20196;-62
2021/05/02 03:54:31;;;;;;;33.10;29.63;;;;;;;8.35;91.96;96061.72;5059477;28;20182;-61
2021/05/02 03:56:57;;;;;;;32.50;29.00;;;;;;;8.60;90.84;96069.47;5056375;28;20181;-61
2021/05/02 03:59:24;;;;;;;32.97;29.47;;;;;;;8.63;88.72;96069.81;5055247;28;20201;-60
2021/05/02 04:01:55;;;;;;;30.63;27.37;;;;;;;8.56;90.30;96070.91;5055724;28;20167;-61
2021/05/02 04:04:38;;;;;;;32.03;28.63;;;;;;;8.87;88.91;96068.91;5055432;28;20408;-61
2021/05/02 04:07:06;;;;;;;31.70;28.33;;;;;;;9.03;88.65;96070.09;5055229;28;20413;-62
2021/05/02 04:09:33;;;;;;;32.30;29.00;;;;;;;9.20;88.06;96074.47;5055093;28;21038;-61
2021/05/02 04:11:59;;;;;;;31.70;28.50;;;;;;;9.22;87.72;96077.66;5068413;28;20409;-61
2021/05/02 04:14:25;;;;;;;32.57;29.03;;;;;;;9.32;88.12;96072.69;5074456;28;20422;-61
2021/05/02 04:17:09;;;;;;;33.80;30.30;;;;;;;9.41;87.42;96083.66;5075022;28;20163;-68
2021/05/02 04:19:46;;;;;;;32.70;29.20;;;;;;;9.49;86.88;96083.34;5075115;28;20187;-60
2021/05/02 04:22:17;;;;;;;31.70;28.30;;;;;;;9.37;86.10;96097.44;5075181;28;20795;-60
2021/05/02 04:24:43;;;;;;;32.23;27.87;;;;;;;8.98;87.20;96101.41;5073088;28;20562;-61
2021/05/02 04:27:10;;;;;;;32.67;29.17;;;;;;;9.22;86.59;96097.88;5074658;28;20949;-61
2021/05/02 04:29:35;;;;;;;32.83;28.27;;;;;;;8.95;88.31;96099.25;5074097;28;20437;-61
2021/05/02 04:32:02;;;;;;;31.40;28.20;;;;;;;8.78;88.88;96103.47;5074961;28;20404;-60
2021/05/02 04:34:28;;;;;;;32.80;28.47;;;;;;;8.37;90.63;96112.00;5073617;28;20592;-60
2021/05/02 04:36:55;;;;;;;31.57;28.30;;;;;;;8.24;92.10;96114.78;5074510;28;20496;-61
2021/05/02 04:39:21;;;;;;;36.27;30.53;;;;;;;8.17;92.00;96120.03;5067607;28;20267;-60
2021/05/02 04:41:46;;;;;;;31.70;28.50;;;;;;;8.03;92.84;96129.03;5054673;28;20411;-60
2021/05/02 04:44:12;;;;;;;33.57;27.00;;;;;;;8.36;92.20;96141.00;5054731;28;20428;-61
2021/05/02 04:46:38;;;;;;;31.20;27.90;;;;;;;8.54;91.27;96141.03;5054584;28;20178;-61
2021/05/02 04:49:06;;;;;;;37.10;27.83;;;;;;;8.15;92.51;96137.75;5054042;28;20277;-60
2021/05/02 04:51:31;;;;;;;28.93;25.80;;;;;;;7.87;95.54;96153.09;5054338;28;20430;-60
2021/05/02 04:53:56;;;;;;;31.47;27.90;;;;;;;7.49;95.81;96151.56;5055633;28;20413;-60
2021/05/02 04:56:22;;;;;;;31.20;28.00;;;;;;;7.66;96.08;96153.47;5054463;28;20162;-61
2021/05/02 04:58:47;;;;;;;30.47;27.10;;;;;;;7.45;96.85;96160.84;5053991;28;20204;-61
2021/05/02 05:01:13;;;;;;;30.83;27.73;;;;;;;7.19;99.49;96173.06;5054469;28;20204;-60
2021/05/02 05:03:40;;;;;;;29.57;26.47;;;;;;;7.43;98.52;96170.72;5054011;28;20206;-60
2021/05/02 05:06:05;;;;;;;31.73;28.37;;;;;;;6.96;100.00;96166.75;5054311;28;20964;-60
2021/05/02 05:08:30;;;;;;;32.60;28.43;;;;;;;7.07;99.33;96159.06;5068422;28;20509;-60
2021/05/02 05:10:56;;;;;;;35.73;30.43;;;;;;;7.39;98.03;96167.75;5074132;28;20215;-61
2021/05/02 05:13:21;;;;;;;32.20;27.70;;;;;;;7.39;98.74;96166.94;5065867;28;20177;-60
2021/05/02 05:15:47;;;;;;;33.23;29.50;;;;;;;7.61;97.78;96168.19;5068226;28;20166;-61
2021/05/02 05:18:12;;;;;;;35.30;31.10;;;;;;;7.73;96.45;96163.88;5053640;28;20172;-61
2021/05/02 05:20:38;;;;;;;31.60;28.17;;;;;;;7.68;97.21;96174.97;5055775;28;20230;-60
2021/05/02 05:23:03;;;;;;;34.97;29.90;;;;;;;7.72;96.14;96178.75;5073767;28;20552;-60
2021/05/02 05:25:29;;;;;;;32.40;28.90;;;;;;;7.66;96.99;96181.44;5073908;28;20178;-60
2021/05/02 05:27:54;;;;;;;35.30;28.80;;;;;;;7.83;96.52;96185.94;5072556;28;20168;-61
2021/05/02 05:30:20;;;;;;;30.23;26.93;;;;;;;7.96;94.76;96191.06;5073811;28;20194;-61
2021/05/02 05:32:45;;;;;;;29.23;26.13;;;;;;;7.50;96.67;96187.97;5073748;28;20165;-60
2021/05/02 05:35:11;;;;;;;32.40;28.90;;;;;;;7.91;94.88;96188.28;5070995;28;20668;-61
2021/05/02 05:37:38;;;;;;;30.83;27.43;;;;;;;7.56;97.19;96178.47;5053064;28;20547;-60
2021/05/02 05:40:05;;;;;;;30.33;27.13;;;;;;;7.94;95.39;96187.03;5053571;28;20187;-60
2021/05/02 05:42:31;;;;;;;31.30;27.90;;;;;;;7.99;95.06;96190.63;5053642;28;20462;-60
2021/05/02 05:44:56;;;;;;;29.07;25.87;;;;;;;8.04;92.76;96182.94;5053760;28;20478;-59
2021/05/02 05:47:21;;;;;;;29.60;26.60;;;;;;;8.11;94.40;96185.50;5053273;28;20697;-61
2021/05/02 05:49:47;;;;;;;29.07;26.13;;;;;;;7.99;93.45;96189.84;5054286;28;20611;-61
2021/05/02 05:52:12;;;;;;;32.23;26.80;;;;;;;8.03;92.84;96191.00;5053723;28;20258;-61
2021/05/02 05:54:39;;;;;;;30.03;26.77;;;;;;;8.42;92.63;96190.69;5053608;28;20170;-61
2021/05/02 05:57:05;;;;;;;29.60;26.40;;;;;;;8.45;92.12;96199.91;5052688;28;20660;-61
2021/05/02 05:59:30;;;;;;;29.53;26.40;;;;;;;8.22;92.65;96196.06;5053368;28;20431;-61
2021/05/02 06:01:56;;;;;;;30.47;26.97;;;;;;;8.43;92.33;96194.09;5051685;28;20202;-62
2021/05/02 06:04:22;;;;;;;28.33;25.33;;;;;;;8.29;92.21;96206.53;5054459;28;20240;-59
2021/05/02 06:06:47;;;;;;;28.70;25.63;;;;;;;8.36;92.75;96202.03;5053539;28;20191;-59
2021/05/02 06:09:13;;;;;;;30.23;27.03;;;;;;;8.54;91.64;96198.63;5052845;28;20193;-59
2021/05/02 06:11:38;;;;;;;28.80;25.70;;;;;;;8.35;92.97;96216.16;5053186;28;20167;-62
2021/05/02 06:14:05;;;;;;;26.53;23.93;;;;;;;8.08;94.08;96212.91;5053384;28;20587;-59
2021/05/02 06:16:31;;;;;;;29.30;26.30;;;;;;;8.01;95.00;96216.56;5053143;28;20254;-61
2021/05/02 06:18:57;;;;;;;28.50;25.13;;;;;;;7.94;93.47;96214.00;5053813;28;20545;-61
2021/05/02 06:21:24;;;;;;;28.77;25.77;;;;;;;7.92;93.46;96217.84;5056157;28;20423;-60
2021/05/02 06:23:50;;;;;;;28.40;25.30;;;;;;;7.72;94.10;96220.59;5067018;28;20463;-59
2021/05/02 06:26:18;;;;;;;27.63;24.83;;;;;;;7.78;95.36;96219.75;5053069;28;20494;-59
2021/05/02 06:28:44;;;;;;;29.30;25.97;;;;;;;8.27;94.12;96219.03;5052614;28;20865;-61
2021/05/02 06:31:11;;;;;;;26.83;23.93;;;;;;;8.53;92.25;96212.75;5051722;28;20445;-61
2021/05/02 06:33:36;;;;;;;27.67;24.87;;;;;;;8.44;91.55;96209.63;5053256;28;20629;-61
2021/05/02 06:36:02;;;;;;;28.90;25.80;;;;;;;8.38;92.32;96214.91;5053258;28;20460;-59
2021/05/02 06:38:27;;;;;;;29.30;26.27;;;;;;;8.31;92.92;96215.75;5052758;28;20411;-61
2021/05/02 06:40:52;;;;;;;27.60;24.70;;;;;;;8.27;92.96;96225.06;5066397;28;20300;-60
2021/05/02 06:43:18;;;;;;;27.23;24.40;;;;;;;8.37;93.03;96226.41;5073065;28;20198;-61
2021/05/02 06:45:43;;;;;;;29.03;25.80;;;;;;;8.00;94.34;96231.50;5071228;28;20180;-59
2021/05/02 06:48:09;;;;;;;27.80;24.60;;;;;;;7.81;97.12;96229.00;5072485;28;20205;-61
2021/05/02 06:50:34;;;;;;;25.77;23.27;;;;;;;7.80;96.60;96230.00;5072762;28;20208;-59
2021/05/02 06:53:00;;;;;;;28.57;25.57;;;;;;;7.96;96.13;96240.75;5072136;28;20510;-61
2021/05/02 06:55:25;;;;;;;27.43;24.47;;;;;;;7.75;96.50;96241.13;5073196;28;20193;-62
2021/05/02 06:57:51;;;;;;;27.30;24.57;;;;;;;7.86;96.98;96240.41;5071726;28;20177;-62
2021/05/02 07:00:17;;;;;;;30.57;27.13;;;;;;;8.02;97.46;96250.41;5072862;28;20213;-61
2021/05/02 07:02:42;;;;;;;26.23;23.60;;;;;;;7.93;94.57;96248.25;5071451;28;20225;-61
2021/05/02 07:05:08;;;;;;;24.17;21.77;;;;;;;8.10;92.87;96249.31;5070977;28;20452;-59
2021/05/02 07:07:33;;;;;;;26.30;23.60;;;;;;;8.48;92.44;96251.88;5072705;28;20171;-59
2021/05/02 07:09:59;;;;;;;25.53;22.90;;;;;;;8.44;93.07;96240.22;5065187;28;21020;-61
2021/05/02 07:12:25;;;;;;;25.43;22.87;;;;;;;8.73;90.88;96244.78;5051498;28;20180;-61
2021/05/02 07:14:50;;;;;;;24.67;22.10;;;;;;;8.73;90.15;96250.81;5071909;28;20210;-61
2021/05/02 07:17:17;;;;;;;24.23;21.83;;;;;;;8.81;90.84;96253.16;5060454;28;20270;-62
2021/05/02 07:19:42;;;;;;;24.10;21.20;;;;;;;8.52;90.97;96259.06;5059569;28;20200;-61
2021/05/02 07:22:08;;;;;;;23.53;20.90;;;;;;;8.32;92.83;96261.84;5076165;28;20453;-60
2021/05/02 07:24:33;;;;;;;24.43;21.93;;;;;;;8.85;90.98;96261.38;5076291;28;20204;-59
2021/05/02 07:26:59;;;;;;;23.83;21.60;;;;;;;8.84;90.13;96255.31;5075014;28;20258;-69
2021/05/02 07:29:24;;;;;;;21.93;19.77;;;;;;;8.48;91.10;96257.09;5076127;28;20275;-59
2021/05/02 07:31:50;;;;;;;24.13;21.83;;;;;;;8.63;91.59;96254.94;5073380;28;20219;-59
2021/05/02 07:34:16;;;;;;;24.90;22.30;;;;;;;9.18;90.52;96260.03;5073349;28;20175;-59
2021/05/02 07:36:42;;;;;;;22.00;19.67;;;;;;;9.37;89.86;96258.16;5075268;28;20204;-59
2021/05/02 07:39:08;;;;;;;25.37;22.90;;;;;;;9.62;88.60;96258.84;5075462;28;20873;-62
2021/05/02 07:41:34;;;;;;;25.13;22.67;;;;;;;9.44;88.02;96260.72;5074713;28;20279;-61
2021/05/02 07:43:59;;;;;;;24.77;22.17;;;;;;;9.66;89.12;96260.00;5075852;28;20541;-60
2021/05/02 07:46:25;;;;;;;22.97;20.77;;;;;;;9.67;87.28;96259.00;5075781;28;20232;-60
2021/05/02 07:48:50;;;;;;;21.30;19.30;;;;;;;9.68;85.06;96267.66;5063634;28;20199;-63
2021/05/02 07:51:15;;;;;;;20.60;18.70;;;;;;;9.60;84.43;96260.09;5055599;28;20283;-63
2021/05/02 07:53:41;;;;;;;20.77;18.80;;;;;;;9.85;83.83;96261.59;5055734;28;20171;-63
2021/05/02 07:56:06;;;;;;;20.20;18.33;;;;;;;9.41;83.13;96274.25;5055537;28;20640;-59
2021/05/02 07:58:32;;;;;;;19.37;17.57;;;;;;;9.47;84.16;96279.44;5069891;28;20527;-60
2021/05/02 08:00:57;;;;;;;19.33;17.47;;;;;;;9.64;79.49;96282.25;5058712;28;20271;-63
2021/05/02 08:03:22;;;;;;;19.50;17.60;;;;;;;9.17;75.87;96287.22;5067664;28;20558;-63
2021/05/02 08:05:48;;;;;;;17.83;16.10;;;;;;;9.08;78.21;96285.09;5055370;28;20217;-59
2021/05/02 08:08:14;;;;;;;18.40;16.80;;;;;;;9.33;77.73;96296.31;5065618;28;20670;-63
2021/05/02 08:10:39;;;;;;;19.80;17.77;;;;;;;9.61;78.89;96290.56;5075082;28;20432;-59
2021/05/02 08:13:05;;;;;;;18.20;16.40;;;;;;;9.94;76.63;96293.56;5075208;28;20172;-60
2021/05/02 08:15:30;;;;;;;19.30;17.30;;;;;;;10.41;78.15;96297.13;5074415;28;20182;-60
2021/05/02 08:18:01;;;;;;;19.67;17.77;;;;;;;10.71;76.80;96295.22;5062029;28;20187;-59
2021/05/02 08:20:26;;;;;;;20.53;17.47;;;;;;;10.95;75.08;96302.88;5062006;28;20205;-63
2021/05/02 08:22:52;;;;;;;18.60;16.90;;;;;;;10.99;74.72;96304.03;5057018;28;20471;-63
2021/05/02 08:25:19;;;;;;;19.33;17.53;;;;;;;10.76;72.03;96304.00;5065627;28;20625;-59
2021/05/02 08:27:46;;;;;;;18.30;16.80;;;;;;;10.81;74.25;96306.78;5054645;28;20425;-62
2021/05/02 08:30:13;;;;;;;18.37;16.60;;;;;;;11.20;72.70;96302.63;5066222;28;20452;-63
2021/05/02 08:32:40;;;;;;;19.43;17.63;;;;;;;11.26;68.07;96299.91;5055907;28;20919;-60
2021/05/02 08:35:06;;;;;;;18.13;15.73;;;;;;;11.06;69.17;96307.34;5054921;28;20737;-60
2021/05/02 08:37:32;;;;;;;17.87;16.03;;;;;;;10.38;72.49;96310.72;5054120;28;20430;-59
2021/05/02 08:39:57;;;;;;;18.20;16.40;;;;;;;10.61;71.84;96308.13;5054793;28;20453;-62
2021/05/02 08:42:23;;;;;;;19.30;17.60;;;;;;;10.40;71.91;96311.31;5055708;28;20203;-63
2021/05/02 08:44:49;;;;;;;17.93;16.13;;;;;;;10.24;75.04;96312.72;5054625;28;20191;-60
2021/05/02 08:47:14;;;;;;;19.73;17.67;;;;;;;10.24;73.34;96315.34;5054348;28;20241;-60
2021/05/02 08:49:44;;;;;;;18.63;16.93;;;;;;;10.16;74.67;96310.44;5054230;28;20455;-62
2021/05/02 08:52:10;;;;;;;18.00;16.23;;;;;;;10.38;71.86;96315.97;5063441;28;20177;-61
2021/05/02 08:54:35;;;;;;;17.97;16.10;;;;;;;10.47;70.20;96312.81;5059460;28;20421;-65
2021/05/02 08:57:02;;;;;;;17.53;15.93;;;;;;;10.52;69.80;96314.75;5050609;28;20232;-62
2021/05/02 08:59:27;;;;;;;17.77;16.20;;;;;;;11.06;72.88;96314.44;5050600;28;20665;-61
2021/05/02 09:02:01;;;;;;;18.00;16.40;;;;;;;10.96;67.88;96322.09;5050461;28;20424;-62
2021/05/02 09:04:26;;;;;;;19.20;17.50;;;;;;;11.45;71.97;96318.16;5049315;28;20197;-64
2021/05/02 09:06:54;;;;;;;17.50;15.90;;;;;;;10.91;66.24;96320.13;5050170;28;20414;-64
2021/05/02 09:09:19;;;;;;;18.60;16.90;;;;;;;10.84;68.29;96318.66;5055870;28;20199;-64
2021/05/02 09:11:46;;;;;;;18.87;17.13;;;;;;;10.66;69.64;96310.88;5070574;28;20470;-64
2021/05/02 09:14:27;;;;;;;19.17;17.43;;;;;;;11.11;71.10;96312.72;5070536;28;20171;-63
2021/05/02 09:16:57;;;;;;;18.53;16.93;;;;;;;11.10;71.69;96312.94;5070311;28;20915;-61
2021/05/02 09:19:25;;;;;;;19.00;17.20;;;;;;;11.16;70.07;96312.81;5069488;28;20448;-61
2021/05/02 09:21:51;;;;;;;21.93;16.27;;;;;;;11.01;66.22;96317.75;5057247;28;20469;-63
2021/05/02 09:24:25;;;;;;;16.53;15.03;;;;;;;11.31;64.91;96313.16;5052805;28;20446;-61
2021/05/02 09:27:14;;;;;;;17.83;16.13;;;;;;;11.52;67.58;96306.50;5053988;28;20409;-64
2021/05/02 09:29:44;;;;;;;17.83;16.23;;;;;;;11.79;62.95;96310.22;5052567;28;20521;-61
2021/05/02 09:32:12;;;;;;;17.70;16.00;;;;;;;12.00;61.36;96309.56;5053815;28;20892;-62
2021/05/02 09:34:47;;;;;;;17.63;16.03;;;;;;;11.99;59.57;96309.78;5054289;28;20892;-61
2021/05/02 09:37:13;;;;;;;17.90;16.20;;;;;;;11.47;58.48;96309.00;5055989;28;20433;-61
2021/05/02 09:39:49;;;;;;;18.97;17.17;;;;;;;11.69;59.42;96317.91;5073565;28;20433;-61
2021/05/02 09:42:40;;;;;;;19.83;17.83;;;;;;;11.25;59.68;96319.31;5055809;28;20206;-60
2021/05/02 09:45:08;;;;;;;18.53;16.80;;;;;;;11.52;62.25;96313.56;5073636;28;20401;-60
2021/05/02 09:47:35;;;;;;;19.87;17.90;;;;;;;11.39;61.10;96320.66;5073176;28;20410;-61
2021/05/02 09:50:10;;;;;;;20.23;18.33;;;;;;;11.47;61.41;96321.38;5073419;28;20449;-61
2021/05/02 09:52:49;;;;;;;20.10;18.23;;;;;;;11.38;59.81;96324.34;5055905;28;20424;-61
2021/05/02 09:55:44;;;;;;;19.67;17.77;;;;;;;11.19;61.89;96317.63;5072342;28;20421;-61
2021/05/02 09:58:15;;;;;;;20.43;18.30;;;;;;;11.43;59.67;96322.84;5072580;28;20741;-60
2021/05/02 10:00:54;;;;;;;20.50;18.70;;;;;;;12.08;59.77;96327.59;5073574;28;20425;-61
2021/05/02 10:03:21;;;;;;;18.60;16.83;;;;;;;12.46;58.08;96326.97;5073502;28;20954;-61
2021/05/02 10:06:06;;;;;;;18.97;17.37;;;;;;;12.72;60.11;96321.06;5072288;28;20414;-61
2021/05/02 10:08:34;;;;;;;20.00;18.13;;;;;;;12.82;58.50;96323.88;5064570;28;20428;-61
2021/05/02 10:11:03;;;;;;;19.67;17.97;;;;;;;13.12;58.21;96324.34;5065467;28;20414;-61
2021/05/02 10:13:29;;;;;;;19.60;17.90;;;;;;;12.65;54.33;96324.91;5053332;28;20401;-62
2021/05/02 10:15:55;;;;;;;20.17;18.33;;;;;;;12.71;54.31;96322.13;5053219;28;20509;-61
2021/05/02 10:18:20;;;;;;;17.63;16.23;;;;;;;12.63;51.49;96335.69;5056580;28;20948;-61
2021/05/02 10:20:48;;;;;;;18.53;16.93;;;;;;;12.74;54.42;96339.28;5073126;28;20178;-60
2021/05/02 10:23:15;;;;;;;23.73;17.47;;;;;;;12.10;56.49;96341.34;5067989;28;20194;-61
2021/05/02 10:25:42;;;;;;;19.30;17.60;;;;;;;12.23;59.19;96341.06;5067421;28;20428;-61
2021/05/02 10:28:07;;;;;;;19.80;17.47;;;;;;;11.74;55.78;96346.94;5068363;28;20413;-65
2021/05/02 10:30:38;;;;;;;18.20;16.40;;;;;;;12.13;55.47;96335.63;5069422;28;20949;-64
2021/05/02 10:33:09;;;;;;;16.67;15.13;;;;;;;12.61;55.12;96340.38;5069592;28;20265;-61
2021/05/02 10:36:08;;;;;;;17.50;15.87;;;;;;;12.09;52.89;96333.66;5069005;28;20943;-63
2021/05/02 10:38:56;;;;;;;17.57;15.97;;;;;;;11.99;53.60;96330.88;5055199;28;20432;-64
2021/05/02 10:41:29;;;;;;;19.20;17.43;;;;;;;12.01;54.25;96332.22;5054414;28;20418;-62
2021/05/02 10:43:58;;;;;;;19.03;17.23;;;;;;;12.07;54.85;96327.84;5049300;28;20830;-62
2021/05/02 10:46:41;;;;;;;18.63;16.90;;;;;;;12.63;56.53;96325.13;5049595;28;20413;-62
2021/05/02 10:49:19;;;;;;;19.10;17.47;;;;;;;12.95;58.15;96322.75;5051684;28;20987;-62
2021/05/02 10:51:49;;;;;;;18.90;16.97;;;;;;;12.93;53.55;96323.00;5054482;28;20437;-63
2021/05/02 10:54:43;;;;;;;17.43;15.73;;;;;;;13.61;55.83;96309.44;5053887;28;20406;-61
2021/05/02 10:57:32;;;;;;;17.63;16.03;;;;;;;13.33;50.53;96328.88;5065890;28;20488;-63
2021/05/02 11:00:11;;;;;;;15.50;14.30;;;;;;;13.48;47.80;96311.66;5052425;28;20799;-67
2021/05/02 11:02:40;;;;;;;18.00;16.20;;;;;;;13.53;48.99;96319.63;5052695;28;20558;-68
2021/05/02 11:05:13;;;;;;;17.03;15.50;;;;;;;12.75;50.22;96312.69;5053056;28;20445;-65
2021/05/02 11:07:41;;;;;;;17.00;15.60;;;;;;;12.03;51.61;96324.88;5052768;28;20413;-62
2021/05/02 11:10:15;;;;;;;18.37;16.43;;;;;;;12.26;52.80;96318.72;5051552;28;20476;-63
2021/05/02 11:12:42;;;;;;;17.50;15.90;;;;;;;12.37;53.58;96321.28;5051288;28;20428;-62
2021/05/02 11:15:26;;;;;;;18.40;16.80;;;;;;;12.30;52.55;96331.16;5053829;28;20422;-63
2021/05/02 11:17:53;;;;;;;16.43;15.13;;;;;;;12.55;52.68;96324.75;5066749;28;20456;-67
2021/05/02 11:20:45;;;;;;;16.83;15.30;;;;;;;12.21;54.18;96337.06;5054977;28;20537;-65
2021/05/02 11:23:10;;;;;;;16.77;15.27;;;;;;;12.16;58.67;96344.84;5064081;28;20468;-64
2021/05/02 11:25:41;;;;;;;16.37;14.80;;;;;;;12.20;59.85;96352.06;5072249;28;20418;-63
2021/05/02 11:28:11;;;;;;;14.40;13.10;;;;;;;12.66;60.04;96360.78;5071088;28;20261;-63
2021/05/02 11:30:46;;;;;;;15.73;14.23;;;;;;;12.65;63.44;96356.53;5056127;28;20449;-64